Latest Weather Observations for Hindmarsh Island

IDS60901

Issued at 5:21 pm CST Friday 1 July 2016 (issued every 10 minutes, with the page automatically refreshed every 10 minutes)

About weather observations | Map of Adelaide area stations | Latest observations for Adelaide area | Other Formats
Station Details ID: 023894 Name: HINDMARSH ISLAND AWS Lat: -35.52 Lon: 138.82 Height: 11.0 m
Data from the previous 72 hours. | See also: Recent months at Hindmarsh Island
Date/Time
CST
Temp
°C
App
Temp
°C
Dew
Point
°C
Rel
Hum
%
Delta-T
°C
Wind Press
QNH
hPa
Press
MSL
hPa
Rain since
9am
mm
Dir  Spd
km/h
Gust
km/h
Spd
kts
Gust
kts
01/05:00pm 13.3 9.4 8.6 73 2.4 NW 19 26 10 14 1025.0 - 0.2
01/04:30pm 13.5 10.4 9.0 74 2.3 WNW 15 20 8 11 1025.0 - 0.2
01/04:00pm 13.4 7.5 8.9 74 2.3 W 30 39 16 21 1024.9 - 0.2
01/03:30pm 13.9 8.9 8.1 68 2.9 W 24 35 13 19 1024.7 - 0.2
01/03:00pm 14.6 10.5 8.5 67 3.1 W 20 24 11 13 1024.5 1024.5 0.2
01/02:30pm 14.9 10.2 7.7 62 3.6 W 22 32 12 17 1024.3 - 0.2
01/02:00pm 15.0 10.9 7.8 62 3.6 W 19 24 10 13 1024.2 - 0.2
01/01:30pm 15.1 10.3 7.2 59 3.9 W 22 30 12 16 1024.2 - 0.2
01/01:00pm 14.8 9.7 7.8 63 3.5 W 24 32 13 17 1024.6 - 0.2
01/12:30pm 14.7 10.3 7.3 61 3.6 W 20 26 11 14 1024.8 - 0.2
01/12:00pm 15.3 11.3 8.1 62 3.6 W 19 26 10 14 1024.9 1024.9 0.2
01/11:30am 14.9 10.8 7.9 63 3.5 W 19 24 10 13 1025.2 - 0.2
01/11:00am 14.4 10.2 8.1 66 3.1 W 20 30 11 16 1025.4 - 0.0
01/10:30am 13.8 9.6 8.2 69 2.8 W 20 26 11 14 1025.6 - 0.0
01/10:00am 13.1 9.8 8.2 72 2.4 W 15 20 8 11 1025.2 - 0.0
01/09:30am 12.1 8.8 8.0 76 2.0 W 15 20 8 11 1025.1 - 0.0
01/09:00am 12.0 8.7 8.1 77 1.9 W 15 24 8 13 1024.9 1024.8 4.0
01/08:30am 11.4 8.1 7.9 79 1.7 W 15 19 8 10 1024.5 - 4.0
01/08:00am 11.1 7.4 7.8 80 1.6 W 17 24 9 13 1024.2 - 4.0
01/07:30am 10.2 6.3 6.9 80 1.6 W 17 20 9 11 1023.9 - 4.0
01/07:00am 10.2 7.1 7.3 82 1.4 W 13 19 7 10 1023.4 - 4.0
01/06:30am 10.0 6.5 7.3 83 1.3 WNW 15 19 8 10 1023.2 - 4.0
01/06:00am 10.5 6.2 6.8 78 1.7 W 19 28 10 15 1022.8 1022.7 4.0
01/05:30am 10.4 6.5 6.9 79 1.7 W 17 20 9 11 1022.2 - 4.0
01/05:00am 10.0 6.4 6.7 80 1.5 W 15 19 8 10 1021.9 - 4.0
01/04:30am 9.8 5.4 6.5 80 1.5 W 19 24 10 13 1021.5 - 4.0
01/04:00am 10.3 4.6 6.6 78 1.7 W 26 43 14 23 1021.4 - 4.0
01/03:30am 9.8 6.5 6.5 80 1.5 WNW 13 17 7 9 1021.2 - 4.0
01/03:00am 9.3 5.2 6.2 81 1.4 WNW 17 20 9 11 1021.2 1021.2 4.0
01/02:30am 9.5 5.5 6.6 82 1.4 WNW 17 20 9 11 1020.9 - 4.0
01/02:00am 9.9 5.6 7.2 83 1.3 W 19 26 10 14 1020.7 - 4.0
01/01:34am 10.0 3.4 7.6 85 1.1 W 32 50 17 27 1020.8 - 4.0
01/01:32am 10.0 3.4 7.6 85 1.1 W 32 50 17 27 1020.8 - 4.0
01/01:30am 10.2 3.4 7.8 85 1.2 W 33 50 18 27 1020.8 - 4.0
01/01:27am 10.2 3.6 7.6 84 1.2 WSW 32 50 17 27 1020.6 - 4.0
01/01:25am 10.2 3.6 7.6 84 1.2 WSW 32 50 17 27 1020.6 - 4.0
01/01:00am 11.0 5.9 6.0 71 2.3 W 22 28 12 15 1020.0 - 3.4
01/12:30am 10.7 5.7 6.5 75 2.0 W 22 30 12 16 1020.0 - 3.4
01/12:00am 10.0 5.4 6.5 79 1.6 WNW 20 28 11 15 1019.9 1019.9 3.4
 
Date/Time
CST
Temp
°C
App
Temp
°C
Dew
Point
°C
Rel
Hum
%
Delta-T
°C
Wind Press
QNH
hPa
Press
MSL
hPa
Rain since
9am
mm
Dir  Spd
km/h
Gust
km/h
Spd
kts
Gust
kts
30/11:30pm 9.8 5.3 6.2 78 1.7 WNW 19 24 10 13 1019.8 - 3.4
30/11:00pm 10.8 5.9 6.7 76 1.9 W 22 32 12 17 1019.6 - 3.4
30/10:30pm 10.4 4.7 6.5 77 1.8 W 26 35 14 19 1019.4 - 3.4
30/10:00pm 10.6 3.6 6.2 74 2.0 W 32 44 17 24 1019.2 - 3.4
30/09:39pm 11.8 6.3 5.7 66 2.8 WSW 24 44 13 24 1018.8 - 3.4
30/09:30pm 12.1 4.0 5.3 63 3.1 SSW 37 46 20 25 1018.5 - 3.4
30/09:00pm 11.7 2.3 4.2 60 3.4 SW 43 54 23 29 1018.2 1018.2 3.4
30/08:30pm 11.4 2.7 4.2 61 3.2 SW 39 52 21 28 1018.0 - 3.4
30/08:00pm 11.4 1.6 5.5 67 2.7 SW 46 59 25 32 1017.6 - 3.4
30/07:56pm 11.1 1.6 4.8 65 2.9 SW 44 52 24 28 1017.4 - 3.4
30/07:48pm 11.3 2.0 5.2 66 2.8 SW 43 59 23 32 1017.3 - 3.4
30/07:34pm 10.4 2.9 6.4 76 1.9 WSW 35 54 19 29 1017.4 - 3.2
30/07:32pm 10.4 3.3 6.4 76 1.9 W 33 56 18 30 1017.4 - 3.2
30/07:30pm 10.5 2.6 6.1 74 2.0 W 37 56 20 30 1017.4 - 3.2
30/07:29pm 10.6 1.5 6.0 73 2.1 WSW 43 54 23 29 1017.2 - 3.2
30/07:28pm 10.6 1.9 5.8 72 2.2 W 41 56 22 30 1017.2 - 3.2
30/07:18pm 11.5 3.8 7.0 74 2.1 SSW 37 44 20 24 1016.9 - 3.2
30/07:16pm 11.5 3.8 7.0 74 2.1 SSW 37 59 20 32 1016.9 - 3.2
30/07:01pm 11.0 3.6 5.1 67 2.7 WSW 33 56 18 30 1016.6 - 3.2
30/07:00pm 11.0 3.2 5.1 67 2.7 WSW 35 56 19 30 1016.7 - 3.2
30/06:30pm 9.9 0.9 6.2 78 1.7 WSW 43 65 23 35 1016.5 - 3.2
30/06:22pm 10.9 3.4 6.5 74 2.1 SW 35 54 19 29 1016.2 - 3.0
30/06:20pm 10.9 3.4 6.5 74 2.1 SW 35 54 19 29 1016.2 - 3.0
30/06:00pm 9.9 1.6 6.2 78 1.7 WSW 39 50 21 27 1015.9 1015.9 3.0
30/05:45pm 11.1 3.4 5.4 68 2.6 WSW 35 56 19 30 1015.3 - 2.4
30/05:43pm 11.1 3.4 5.4 68 2.6 WSW 35 56 19 30 1015.3 - 2.4
30/05:30pm 11.7 3.1 4.7 62 3.2 WSW 39 52 21 28 1014.9 - 2.2
30/05:19pm 11.7 3.6 3.5 57 3.6 WSW 35 54 19 29 1014.9 - 2.2
30/05:01pm 11.9 3.8 5.1 63 3.1 WSW 37 56 20 30 1014.7 - 2.2
30/05:00pm 11.8 3.3 5.0 63 3.1 WSW 39 56 21 30 1014.6 - 2.2
30/04:36pm 11.5 2.2 4.9 64 3.0 WSW 43 61 23 33 1014.4 - 2.2
30/04:34pm 11.5 2.2 4.9 64 3.0 WSW 43 61 23 33 1014.4 - 2.2
30/04:30pm 11.9 2.2 6.0 67 2.8 SW 46 59 25 32 1014.3 - 2.2
30/04:06pm 12.3 2.7 6.4 67 2.8 SW 46 56 25 30 1014.0 - 2.2
30/04:05pm 12.2 2.7 6.5 68 2.7 SW 46 59 25 32 1014.0 - 2.2
30/04:00pm 12.6 5.2 5.1 60 3.5 W 33 54 18 29 1013.9 - 2.2
30/03:57pm 12.6 5.5 5.3 61 3.4 W 32 50 17 27 1013.9 - 2.2
30/03:56pm 12.7 5.7 5.8 63 3.2 W 32 50 17 27 1013.8 - 2.2
30/03:30pm 12.1 4.1 5.5 64 3.1 W 37 50 20 27 1013.6 - 2.2
30/03:01pm 12.8 4.2 4.5 57 3.8 WSW 39 65 21 35 1013.0 - 2.2
30/03:00pm 13.0 4.4 4.9 58 3.7 WSW 39 65 21 35 1013.1 1013.1 2.2
30/02:37pm 13.1 4.6 5.0 58 3.7 WSW 39 57 21 31 1012.7 - 2.2
30/02:35pm 13.1 4.6 5.0 58 3.7 WSW 39 57 21 31 1012.7 - 2.2
30/02:30pm 12.8 3.0 5.2 60 3.5 WSW 46 59 25 32 1012.6 - 2.2
30/02:11pm 13.7 5.8 4.6 54 4.2 WSW 35 54 19 29 1012.4 - 2.2
30/02:09pm 13.7 5.8 4.6 54 4.2 WSW 35 54 19 29 1012.4 - 2.2
30/02:00pm 13.4 6.1 4.6 55 4.0 W 32 46 17 25 1012.4 - 2.2
30/01:30pm 13.2 4.3 4.9 57 3.8 WSW 41 61 22 33 1012.0 - 2.2
30/01:00pm 13.4 4.8 4.6 55 4.0 WSW 39 59 21 32 1011.8 - 2.2
30/12:30pm 14.2 5.2 4.5 52 4.5 W 41 61 22 33 1011.6 - 2.2
30/12:11pm 13.9 5.1 5.5 57 4.0 WSW 41 61 22 33 1011.5 - 2.2
30/12:09pm 13.9 5.1 5.5 57 4.0 WSW 41 61 22 33 1011.5 - 2.2
30/12:00pm 13.9 6.8 6.3 60 3.6 W 33 48 18 26 1011.5 1011.5 2.2
30/11:30am 13.3 6.3 6.9 65 3.1 W 33 48 18 26 1011.8 - 2.2
30/11:01am 13.0 5.4 7.5 69 2.7 WSW 37 56 20 30 1011.7 - 2.2
30/11:00am 13.0 5.8 7.7 70 2.6 WSW 35 52 19 28 1011.8 - 2.2
30/10:57am 13.1 6.5 7.8 70 2.6 W 32 52 17 28 1011.7 - 2.2
30/10:55am 13.1 6.5 7.8 70 2.6 W 32 52 17 28 1011.7 - 2.2
30/10:30am 13.1 6.9 9.2 77 2.0 W 32 44 17 24 1011.6 - 2.2
30/10:00am 11.8 5.6 9.2 84 1.3 W 32 44 17 24 1011.3 - 2.2
30/09:30am 12.3 5.2 8.2 76 2.0 W 35 52 19 28 1010.6 - 1.4
30/09:19am 12.9 7.0 9.0 77 2.0 W 30 52 16 28 1010.8 - 0.4
30/09:17am 12.9 7.0 9.0 77 2.0 W 30 52 16 28 1010.8 - 0.4
30/09:00am 13.8 9.2 9.5 75 2.2 WNW 24 37 13 20 1010.2 1010.1 0.0
30/08:30am 13.7 8.6 9.2 74 2.3 WNW 26 35 14 19 1009.8 - 0.0
30/08:01am 13.4 6.8 8.7 73 2.4 WNW 33 52 18 28 1009.6 - 0.0
30/08:00am 13.4 6.5 8.7 73 2.4 WNW 35 52 19 28 1009.5 - 0.0
30/07:41am 13.6 7.1 9.1 74 2.3 NW 33 52 18 28 1009.4 - 0.0
30/07:39am 13.6 7.1 9.1 74 2.3 NW 33 52 18 28 1009.4 - 0.0
30/07:30am 13.3 7.1 9.2 76 2.1 WNW 32 44 17 24 1009.4 - 0.0
30/07:00am 12.7 7.1 8.8 77 2.0 NW 28 39 15 21 1009.2 - 0.0
30/06:30am 12.3 6.3 8.8 79 1.7 NW 30 43 16 23 1009.0 - 0.0
30/06:00am 12.3 6.0 8.8 79 1.8 NW 32 41 17 22 1009.1 1009.1 0.0
30/05:30am 12.0 5.3 8.3 78 1.8 NW 33 46 18 25 1008.9 - 0.0
30/05:00am 11.9 5.1 7.8 76 2.0 NNW 33 48 18 26 1008.9 - 0.0
30/04:50am 11.7 5.4 7.6 76 2.0 NNW 30 48 16 26 1008.8 - 0.0
30/04:30am 11.3 5.8 7.4 77 1.9 NNW 26 43 14 23 1009.0 - 0.0
30/04:09am 11.4 5.5 7.3 76 2.0 NNW 28 48 15 26 1009.1 - 0.0
30/04:08am 11.4 5.5 7.3 76 2.0 NNW 28 48 15 26 1009.1 - 0.0
30/04:00am 11.3 5.7 7.2 76 2.0 NNW 26 39 14 21 1009.4 - 0.0
30/03:30am 11.5 4.5 7.0 74 2.1 NNW 33 52 18 28 1009.7 - 0.0
30/03:25am 11.5 4.7 6.8 73 2.2 NNW 32 52 17 28 1009.5 - 0.0
30/03:23am 11.5 4.7 6.8 73 2.2 NNW 32 52 17 28 1009.5 - 0.0
30/03:00am 11.5 4.7 6.8 73 2.2 NNW 32 46 17 25 1009.7 1009.8 0.0
30/02:41am 11.3 4.9 6.8 74 2.1 N 30 48 16 26 1009.8 - 0.0
30/02:39am 11.3 4.9 6.8 74 2.1 N 30 48 16 26 1009.8 - 0.0
30/02:30am 11.2 4.7 6.7 74 2.1 NNW 30 43 16 23 1010.2 - 0.0
30/02:00am 10.9 5.2 6.8 76 1.9 NNW 26 35 14 19 1011.4 - 0.0
30/01:30am 11.9 5.3 6.0 67 2.8 NNW 30 43 16 23 1012.1 - 0.0
30/01:00am 12.6 5.8 5.3 61 3.4 NNW 30 44 16 24 1012.3 - 0.0
30/12:42am 13.1 5.9 4.8 57 3.8 NNW 32 54 17 29 1012.2 - 0.0
30/12:40am 13.1 5.9 4.8 57 3.8 NNW 32 54 17 29 1012.2 - 0.0
30/12:30am 13.0 5.1 4.4 56 3.9 NNW 35 50 19 27 1012.2 - 0.0
30/12:07am 13.0 5.6 4.2 55 4.0 NNW 32 52 17 28 1012.4 - 0.0
30/12:05am 13.0 5.6 4.2 55 4.0 NNW 32 52 17 28 1012.4 - 0.0
30/12:00am 12.8 6.6 4.3 56 3.9 N 26 43 14 23 1012.4 1012.5 0.0
 
Date/Time
CST
Temp
°C
App
Temp
°C
Dew
Point
°C
Rel
Hum
%
Delta-T
°C
Wind Press
QNH
hPa
Press
MSL
hPa
Rain since
9am
mm
Dir  Spd
km/h
Gust
km/h
Spd
kts
Gust
kts
29/11:30pm 12.6 7.2 4.3 57 3.8 N 22 32 12 17 1013.5 - 0.0
29/11:00pm 12.9 6.6 3.8 54 4.1 N 26 41 14 22 1013.8 - 0.0
29/10:30pm 12.8 6.2 4.0 55 4.0 N 28 39 15 21 1013.9 - 0.0
29/10:00pm 12.9 5.3 4.1 55 4.0 N 33 48 18 26 1014.1 - 0.0
29/09:44pm 12.9 5.0 4.1 55 4.0 NNW 35 57 19 31 1014.0 - 0.0
29/09:42pm 12.9 5.0 4.1 55 4.0 NNW 35 57 19 31 1014.0 - 0.0
29/09:30pm 12.8 4.1 4.0 55 4.0 NNW 39 54 21 29 1014.1 - 0.0
29/09:00pm 12.8 5.4 4.0 55 4.0 N 32 48 17 26 1014.5 1014.6 0.0
29/08:30pm 12.6 5.6 4.1 56 3.8 N 30 41 16 22 1015.0 - 0.0
29/08:00pm 12.6 4.9 3.5 54 4.1 N 33 46 18 25 1015.0 - 0.0
29/07:30pm 12.3 5.2 3.5 55 3.9 N 30 44 16 24 1015.5 - 0.0
29/07:17pm 12.4 5.3 3.6 55 3.9 N 30 54 16 29 1015.6 - 0.0
29/07:15pm 12.4 5.3 3.6 55 3.9 N 30 54 16 29 1015.6 - 0.0
29/07:00pm 12.0 4.3 3.5 56 3.8 N 33 46 18 25 1015.5 - 0.0
29/06:30pm 11.8 4.3 3.3 56 3.7 N 32 48 17 26 1015.9 - 0.0
29/06:00pm 11.7 5.0 3.7 58 3.5 N 28 43 15 23 1016.3 1016.4 0.0
29/05:30pm 12.0 5.7 3.8 57 3.7 N 26 41 14 22 1016.7 - 0.0
29/05:00pm 12.1 6.1 3.6 56 3.8 NNW 24 35 13 19 1016.9 - 0.0
29/04:40pm 12.4 4.6 3.1 53 4.1 NNW 33 52 18 28 1016.9 - 0.0
29/04:38pm 12.4 4.6 3.1 53 4.1 NNW 33 52 18 28 1016.9 - 0.0
29/04:30pm 12.8 4.6 2.9 51 4.4 N 35 52 19 28 1016.6 - 0.0
29/04:11pm 13.1 5.6 3.2 51 4.4 N 32 50 17 27 1017.0 - 0.0
29/04:09pm 13.1 5.6 3.2 51 4.4 N 32 50 17 27 1017.0 - 0.0
29/04:00pm 13.1 5.6 3.7 53 4.2 N 32 46 17 25 1017.1 - 0.0
29/03:32pm 13.1 5.7 4.0 54 4.1 N 32 50 17 27 1017.3 - 0.0
29/03:30pm 13.1 5.7 4.0 54 4.1 N 32 50 17 27 1017.3 - 0.0
29/03:00pm 12.9 4.2 4.1 55 4.0 N 39 56 21 30 1017.2 1017.2 0.0
29/02:45pm 12.9 5.2 3.3 52 4.3 NNW 33 52 18 28 1017.5 - 0.0
29/02:43pm 12.9 5.2 3.3 52 4.3 NNW 33 52 18 28 1017.5 - 0.0
29/02:30pm 13.0 5.4 3.9 54 4.1 NNW 33 46 18 25 1017.6 - 0.0
29/02:00pm 13.0 5.7 4.7 57 3.8 N 32 44 17 24 1018.2 - 0.0
29/01:30pm 13.1 6.7 5.0 58 3.7 NNW 28 44 15 24 1018.9 - 0.0
29/01:00pm 12.9 6.9 5.1 59 3.6 NNW 26 41 14 22 1019.7 - 0.0
29/12:30pm 13.1 7.1 5.5 60 3.6 NNW 26 37 14 20 1020.6 - 0.0
29/12:00pm 13.2 7.2 5.4 59 3.6 NNW 26 43 14 23 1021.2 1021.2 0.0
29/11:30am 13.6 7.7 5.7 59 3.7 NNW 26 35 14 19 1021.9 - 0.0
29/11:00am 13.5 8.2 5.2 57 3.9 NNW 22 35 12 19 1022.5 - 0.0
29/10:30am 12.8 8.0 5.5 61 3.4 N 20 32 11 17 1023.0 - 0.0
29/10:00am 11.9 8.2 6.2 68 2.7 N 15 19 8 10 1023.5 - 0.0
29/09:30am 11.0 7.3 6.4 73 2.2 NNE 15 24 8 13 1023.7 - 0.0
29/09:00am 9.7 6.3 6.1 78 1.7 NE 13 15 7 8 1023.8 1023.9 0.2
29/08:30am 8.5 5.7 5.1 79 1.5 NE 9 11 5 6 1024.0 - 0.2
29/08:00am 8.0 4.7 4.6 79 1.5 NNE 11 17 6 9 1024.1 - 0.2
29/07:30am 7.4 2.5 4.0 79 1.5 NE 19 20 10 11 1024.0 - 0.2
29/07:00am 7.9 3.4 4.1 77 1.6 NNE 17 22 9 12 1023.9 - 0.2
29/06:30am 8.0 3.5 4.2 77 1.7 NNE 17 20 9 11 1024.0 - 0.2
29/06:00am 5.3 2.4 2.7 83 1.1 E 7 9 4 5 1023.9 1023.9 0.2
29/05:30am 4.5 0.3 1.9 83 1.0 E 13 15 7 8 1024.2 - 0.2
29/05:00am 5.3 2.0 2.3 81 1.2 E 9 9 5 5 1024.0 - 0.2
29/04:30am 6.2 2.6 3.0 80 1.3 NNE 11 15 6 8 1024.0 - 0.2
29/04:00am 6.6 2.7 3.2 79 1.4 NNE 13 15 7 8 1023.9 - 0.0
29/03:30am 7.3 3.0 3.5 77 1.6 N 15 17 8 9 1024.2 - 0.0
29/03:00am 9.6 5.3 3.4 65 2.7 N 15 17 8 9 1024.3 1024.4 0.0
29/02:30am 8.7 4.5 3.7 71 2.2 NNW 15 19 8 10 1024.4 - 0.0
29/02:00am 8.6 4.9 4.4 75 1.8 NNW 13 19 7 10 1024.6 - 0.0
29/01:30am 7.7 4.9 5.0 83 1.2 N 9 13 5 7 1024.7 - 0.0
29/01:00am 7.2 3.5 4.7 84 1.1 N 13 15 7 8 1024.9 - 0.0
29/12:30am 7.2 3.2 4.7 84 1.1 N 15 17 8 9 1025.2 - 0.0
29/12:00am 8.1 3.8 5.4 83 1.2 N 17 20 9 11 1025.5 1025.5 0.0
 
Date/Time
CST
Temp
°C
App
Temp
°C
Dew
Point
°C
Rel
Hum
%
Delta-T
°C
Wind Press
QNH
hPa
Press
MSL
hPa
Rain since
9am
mm
Dir  Spd
km/h
Gust
km/h
Spd
kts
Gust
kts
28/11:30pm 8.1 4.5 5.2 82 1.3 N 13 15 7 8 1025.7 - 0.0
28/11:00pm 8.5 4.7 5.6 82 1.3 N 15 19 8 10 1025.8 - 0.0
28/10:30pm 8.5 4.7 5.6 82 1.3 N 15 17 8 9 1025.8 - 0.0
28/10:00pm 8.5 4.6 5.4 81 1.4 N 15 17 8 9 1025.8 - 0.0
28/09:30pm 8.6 5.1 5.5 81 1.4 N 13 15 7 8 1026.0 - 0.0
28/09:00pm 9.3 5.9 5.9 79 1.5 N 13 15 7 8 1026.0 1026.0 0.0
28/08:30pm 9.7 6.3 6.1 78 1.7 NNE 13 13 7 7 1025.9 - 0.0
28/08:00pm 10.2 7.2 6.0 75 1.9 N 11 13 6 7 1025.8 - 0.0
28/07:30pm 10.5 7.6 6.3 75 2.0 N 11 13 6 7 1026.0 - 0.0
28/07:00pm 11.3 8.4 6.4 72 2.3 N 11 15 6 8 1025.8 - 0.0
28/06:30pm 11.6 8.4 6.9 73 2.2 N 13 17 7 9 1025.6 - 0.0
28/06:00pm 12.4 9.3 7.1 70 2.5 N 13 17 7 9 1025.4 1025.3 0.0
28/05:30pm 13.1 9.7 7.5 69 2.7 NNW 15 20 8 11 1025.2 - 0.0

Latest Capital City Observations: Canberra | Sydney | Melbourne | Brisbane | Adelaide | Perth | Hobart | Darwin

Other Formats:

Comma delimited format used in spreadsheet applications
http://www.bom.gov.au/fwo/IDS60901/IDS60901.94677.axf

JavaScript Object Notation format (JSON) in row-major order
http://www.bom.gov.au/fwo/IDS60901/IDS60901.94677.json